Check out our new PWSWeather beta!
PWSweather.com
Personal Weather Stations
Station Observations
ESTFIQ
Santa Fe, Santa FeAR 3000

Santa FeSanta FeAR 3000

Lat: -31.637, Lon: -60.708

Elevation: 69

Station Type: WH-1081

http://galileo4.unl.edu.ar/estacion

Latest ConditionsUpdated 4:30:01 AM GMT-03:57 Friday, Feb 21, 2020
Currently Today's Max Today's Min Today's Average
Temperature 64.4°F18.0°C 67.1°F19.5°C 64.4°F18.0°C 65.9°F18.8°C
Dew Point 50.2°F10.1°C 50.2°F10.1°C 47.0°F8.3°C 48.4°F9.1°C
Winds 2.2 mph S3.5 kmh S 7.6 mph -12.2 kmh - - 3.4 mph 5.5 kmh
Wind Gusts 9.8 mph15.8 kmh 10.7 mph17.2 kmh - -
Humidity 60% 60% 49% 53%
Pressure 30.15 in1021.0 mb 30.17 in1021.7 mb 30.15 in1021.0 mb -
Hour Temp Dew Point Humidity Winds Wind Gusts Pressure Precip Precip Rate Daily Precip Total
04:30 AM 64.4°F18.0°C 50.2°F10.1°C 60% 2.2 mph S3.5 kmh S 9.8 mph15.8 kmh 30.15 in1021.0 mb 0.00 in0.0 mm 0.00 in0.0 mm 0.00 in0.0 mm
04:25 AM 64.4°F18.0°C 50.2°F10.1°C 60% 3.1 mph S5.0 kmh S 9.8 mph15.8 kmh 30.15 in1021.0 mb 0.00 in0.0 mm 0.00 in0.0 mm 0.00 in0.0 mm
04:20 AM 64.6°F18.1°C 49.9°F9.9°C 59% 4.5 mph S7.2 kmh S 9.2 mph14.8 kmh 30.16 in1021.3 mb 0.00 in0.0 mm 0.00 in0.0 mm 0.00 in0.0 mm
04:15 AM 64.6°F18.1°C 49.9°F9.9°C 59% 3.8 mph S6.1 kmh S 9.8 mph15.8 kmh 30.16 in1021.3 mb 0.00 in0.0 mm 0.00 in0.0 mm 0.00 in0.0 mm
04:10 AM 64.8°F18.2°C 49.7°F9.8°C 58% 3.1 mph S5.0 kmh S 9.8 mph15.8 kmh 30.16 in1021.3 mb 0.00 in0.0 mm 0.00 in0.0 mm 0.00 in0.0 mm
04:05 AM 64.8°F18.2°C 49.2°F9.6°C 57% 7.6 mph S12.2 kmh S 9.8 mph15.8 kmh 30.15 in1021.0 mb 0.00 in0.0 mm 0.00 in0.0 mm 0.00 in0.0 mm
04:00 AM 64.9°F18.3°C 48.9°F9.4°C 56% 4.5 mph S7.2 kmh S 7.6 mph12.2 kmh 30.16 in1021.3 mb 0.00 in0.0 mm 0.00 in0.0 mm 0.00 in0.0 mm
03:55 AM 64.9°F18.3°C 48.9°F9.4°C 56% 2.2 mph S3.5 kmh S 8.3 mph13.4 kmh 30.16 in1021.3 mb 0.00 in0.0 mm 0.00 in0.0 mm 0.00 in0.0 mm
03:50 AM 64.9°F18.3°C 48.9°F9.4°C 56% 3.8 mph S6.1 kmh S 8.3 mph13.4 kmh 30.16 in1021.3 mb 0.00 in0.0 mm 0.00 in0.0 mm 0.00 in0.0 mm
03:45 AM 65.3°F18.5°C 48.7°F9.3°C 55% 1.6 mph S2.6 kmh S 7.6 mph12.2 kmh 30.16 in1021.3 mb 0.00 in0.0 mm 0.00 in0.0 mm 0.00 in0.0 mm
03:40 AM 65.5°F18.6°C 48.9°F9.4°C 55% 3.8 mph S6.1 kmh S 8.3 mph13.4 kmh 30.16 in1021.3 mb 0.00 in0.0 mm 0.00 in0.0 mm 0.00 in0.0 mm
03:35 AM 65.5°F18.6°C 48.4°F9.1°C 54% 3.1 mph S5.0 kmh S 8.3 mph13.4 kmh 30.16 in1021.3 mb 0.00 in0.0 mm 0.00 in0.0 mm 0.00 in0.0 mm
03:30 AM 65.7°F18.7°C 48.1°F8.9°C 53% 1.6 mph SE2.6 kmh SE 9.2 mph14.8 kmh 30.16 in1021.3 mb 0.00 in0.0 mm 0.00 in0.0 mm 0.00 in0.0 mm
03:25 AM 65.8°F18.8°C 48.3°F9.1°C 53% 3.1 mph SSE5.0 kmh SSE 9.2 mph14.8 kmh 30.16 in1021.3 mb 0.00 in0.0 mm 0.00 in0.0 mm 0.00 in0.0 mm
03:20 AM 65.8°F18.8°C 48.7°F9.3°C 54% 1.6 mph S2.6 kmh S 8.3 mph13.4 kmh 30.16 in1021.3 mb 0.00 in0.0 mm 0.00 in0.0 mm 0.00 in0.0 mm
03:15 AM 65.7°F18.7°C 48.6°F9.2°C 54% 3.1 mph S5.0 kmh S 8.3 mph13.4 kmh 30.16 in1021.3 mb 0.00 in0.0 mm 0.00 in0.0 mm 0.00 in0.0 mm
03:10 AM 65.7°F18.7°C 48.6°F9.2°C 54% 3.1 mph S5.0 kmh S 7.6 mph12.2 kmh 30.16 in1021.3 mb 0.00 in0.0 mm 0.00 in0.0 mm 0.00 in0.0 mm
03:05 AM 65.5°F18.6°C 49.4°F9.7°C 56% 3.8 mph S6.1 kmh S 8.3 mph13.4 kmh 30.16 in1021.3 mb 0.00 in0.0 mm 0.00 in0.0 mm 0.00 in0.0 mm
03:00 AM 65.5°F18.6°C 49.4°F9.7°C 56% 2.2 mph S3.5 kmh S 8.3 mph13.4 kmh 30.16 in1021.3 mb 0.00 in0.0 mm 0.00 in0.0 mm 0.00 in0.0 mm
02:55 AM 65.5°F18.6°C 48.9°F9.4°C 55% 3.1 mph S5.0 kmh S 8.3 mph13.4 kmh 30.16 in1021.3 mb 0.00 in0.0 mm 0.00 in0.0 mm 0.00 in0.0 mm
02:50 AM 65.5°F18.6°C 48.4°F9.1°C 54% 3.1 mph S5.0 kmh S 8.3 mph13.4 kmh 30.16 in1021.3 mb 0.00 in0.0 mm 0.00 in0.0 mm 0.00 in0.0 mm
02:45 AM 65.5°F18.6°C 47.9°F8.8°C 53% 1.6 mph S2.6 kmh S 8.3 mph13.4 kmh 30.16 in1021.3 mb 0.00 in0.0 mm 0.00 in0.0 mm 0.00 in0.0 mm
02:40 AM 65.7°F18.7°C 48.1°F8.9°C 53% 1.6 mph S2.6 kmh S 8.3 mph13.4 kmh 30.16 in1021.3 mb 0.00 in0.0 mm 0.00 in0.0 mm 0.00 in0.0 mm
02:35 AM 65.8°F18.8°C 47.7°F8.7°C 52% 4.5 mph S7.2 kmh S 8.3 mph13.4 kmh 30.16 in1021.3 mb 0.00 in0.0 mm 0.00 in0.0 mm 0.00 in0.0 mm
02:30 AM 66.0°F18.9°C 48.4°F9.1°C 53% 3.8 mph S6.1 kmh S 7.6 mph12.2 kmh 30.17 in1021.7 mb 0.00 in0.0 mm 0.00 in0.0 mm 0.00 in0.0 mm
02:25 AM 66.0°F18.9°C 48.4°F9.1°C 53% 3.1 mph S5.0 kmh S 6.9 mph11.1 kmh 30.16 in1021.3 mb 0.00 in0.0 mm 0.00 in0.0 mm 0.00 in0.0 mm
02:20 AM 66.0°F18.9°C 48.9°F9.4°C 54% 3.1 mph SSE5.0 kmh SSE 6.9 mph11.1 kmh 30.16 in1021.3 mb 0.00 in0.0 mm 0.00 in0.0 mm 0.00 in0.0 mm
02:15 AM 65.8°F18.8°C 49.2°F9.6°C 55% 1.6 mph S2.6 kmh S 6.0 mph9.7 kmh 30.16 in1021.3 mb 0.00 in0.0 mm 0.00 in0.0 mm 0.00 in0.0 mm
02:10 AM 65.7°F18.7°C 49.1°F9.5°C 55% 3.1 mph S5.0 kmh S 6.9 mph11.1 kmh 30.16 in1021.3 mb 0.00 in0.0 mm 0.00 in0.0 mm 0.00 in0.0 mm
02:05 AM 65.8°F18.8°C 49.2°F9.6°C 55% 1.6 mph S2.6 kmh S 6.9 mph11.1 kmh 30.16 in1021.3 mb 0.00 in0.0 mm 0.00 in0.0 mm 0.00 in0.0 mm
02:00 AM 66.0°F18.9°C 48.4°F9.1°C 53% 0.7 mph SSE1.1 kmh SSE 9.8 mph15.8 kmh 30.16 in1021.3 mb 0.00 in0.0 mm 0.00 in0.0 mm 0.00 in0.0 mm
01:55 AM 66.2°F19.0°C 47.6°F8.7°C 51% 3.1 mph SSE5.0 kmh SSE 9.8 mph15.8 kmh 30.16 in1021.3 mb 0.00 in0.0 mm 0.00 in0.0 mm 0.00 in0.0 mm
01:50 AM 66.4°F19.1°C 47.7°F8.7°C 51% 3.1 mph SSE5.0 kmh SSE 8.3 mph13.4 kmh 30.16 in1021.3 mb 0.00 in0.0 mm 0.00 in0.0 mm 0.00 in0.0 mm
01:45 AM 66.6°F19.2°C 47.9°F8.8°C 51% 4.5 mph SSE7.2 kmh SSE 8.3 mph13.4 kmh 30.16 in1021.3 mb 0.00 in0.0 mm 0.00 in0.0 mm 0.00 in0.0 mm
01:40 AM 66.6°F19.2°C 47.4°F8.6°C 50% 3.1 mph SSE5.0 kmh SSE 8.3 mph13.4 kmh 30.16 in1021.3 mb 0.00 in0.0 mm 0.00 in0.0 mm 0.00 in0.0 mm
01:35 AM 66.7°F19.3°C 47.0°F8.3°C 49% 3.1 mph SSE5.0 kmh SSE 8.3 mph13.4 kmh 30.16 in1021.3 mb 0.00 in0.0 mm 0.00 in0.0 mm 0.00 in0.0 mm
01:30 AM 66.7°F19.3°C 47.0°F8.3°C 49% 4.5 mph SSE7.2 kmh SSE 8.3 mph13.4 kmh 30.16 in1021.3 mb 0.00 in0.0 mm 0.00 in0.0 mm 0.00 in0.0 mm
01:25 AM 66.7°F19.3°C 47.5°F8.6°C 50% 4.5 mph S7.2 kmh S 8.3 mph13.4 kmh 30.16 in1021.3 mb 0.00 in0.0 mm 0.00 in0.0 mm 0.00 in0.0 mm
01:20 AM 66.6°F19.2°C 47.9°F8.8°C 51% 4.5 mph S7.2 kmh S 7.6 mph12.2 kmh 30.16 in1021.3 mb 0.00 in0.0 mm 0.00 in0.0 mm 0.00 in0.0 mm
01:15 AM 66.6°F19.2°C 47.9°F8.8°C 51% 3.1 mph SSE5.0 kmh SSE 7.6 mph12.2 kmh 30.16 in1021.3 mb 0.00 in0.0 mm 0.00 in0.0 mm 0.00 in0.0 mm
01:10 AM 66.4°F19.1°C 47.7°F8.7°C 51% 3.1 mph SSE5.0 kmh SSE 7.6 mph12.2 kmh 30.16 in1021.3 mb 0.00 in0.0 mm 0.00 in0.0 mm 0.00 in0.0 mm
01:05 AM 66.4°F19.1°C 47.7°F8.7°C 51% 3.8 mph S6.1 kmh S 8.3 mph13.4 kmh 30.16 in1021.3 mb 0.00 in0.0 mm 0.00 in0.0 mm 0.00 in0.0 mm
01:00 AM 66.4°F19.1°C 47.7°F8.7°C 51% 4.5 mph S7.2 kmh S 10.7 mph17.2 kmh 30.16 in1021.3 mb 0.00 in0.0 mm 0.00 in0.0 mm 0.00 in0.0 mm
12:55 AM 66.2°F19.0°C 47.6°F8.7°C 51% 3.8 mph S6.1 kmh S 10.7 mph17.2 kmh 30.16 in1021.3 mb 0.00 in0.0 mm 0.00 in0.0 mm 0.00 in0.0 mm
12:50 AM 66.2°F19.0°C 47.6°F8.7°C 51% 4.5 mph S7.2 kmh S 9.2 mph14.8 kmh 30.16 in1021.3 mb 0.00 in0.0 mm 0.00 in0.0 mm 0.00 in0.0 mm
12:45 AM 66.2°F19.0°C 47.6°F8.7°C 51% 5.4 mph SSE8.7 kmh SSE 9.2 mph14.8 kmh 30.16 in1021.3 mb 0.00 in0.0 mm 0.00 in0.0 mm 0.00 in0.0 mm
12:40 AM 66.4°F19.1°C 47.7°F8.7°C 51% 3.8 mph SSE6.1 kmh SSE 9.2 mph14.8 kmh 30.16 in1021.3 mb 0.00 in0.0 mm 0.00 in0.0 mm 0.00 in0.0 mm
12:35 AM 66.6°F19.2°C 47.9°F8.8°C 51% 3.1 mph SSE5.0 kmh SSE 9.8 mph15.8 kmh 30.16 in1021.3 mb 0.00 in0.0 mm 0.00 in0.0 mm 0.00 in0.0 mm
12:30 AM 66.6°F19.2°C 47.9°F8.8°C 51% 3.1 mph SSE5.0 kmh SSE 9.8 mph15.8 kmh 30.16 in1021.3 mb 0.00 in0.0 mm 0.00 in0.0 mm 0.00 in0.0 mm
12:25 AM 66.7°F19.3°C 48.1°F8.9°C 51% 2.2 mph S3.5 kmh S 9.8 mph15.8 kmh 30.15 in1021.0 mb 0.00 in0.0 mm 0.00 in0.0 mm 0.00 in0.0 mm
12:20 AM 66.9°F19.4°C 48.2°F9.0°C 51% 6.0 mph S9.7 kmh S 9.8 mph15.8 kmh 30.15 in1021.0 mb 0.00 in0.0 mm 0.00 in0.0 mm 0.00 in0.0 mm
12:15 AM 66.9°F19.4°C 47.7°F8.7°C 50% 3.8 mph S6.1 kmh S 9.8 mph15.8 kmh 30.15 in1021.0 mb 0.00 in0.0 mm 0.00 in0.0 mm 0.00 in0.0 mm
12:10 AM 67.1°F19.5°C 47.9°F8.8°C 50% 3.1 mph S5.0 kmh S 9.8 mph15.8 kmh 30.15 in1021.0 mb 0.00 in0.0 mm 0.00 in0.0 mm 0.00 in0.0 mm
12:05 AM 67.1°F19.5°C 47.3°F8.5°C 49% 6.0 mph S9.7 kmh S 9.2 mph14.8 kmh 30.15 in1021.0 mb 0.00 in0.0 mm 0.00 in0.0 mm 0.00 in0.0 mm
12:00 AM 67.1°F19.5°C 47.3°F8.5°C 49% 3.8 mph S6.1 kmh S 10.7 mph17.2 kmh 30.15 in1021.0 mb 0.00 in0.0 mm 0.00 in0.0 mm 0.00 in0.0 mm